• Join FlightAware (Why Join?)
  • Login
  • US Flag 
08:06AM EDT


 

Airport Tracker/Info


-or-


 

Live Flight TrackerFlight Track Log ✈ UAL407 ✈ 10-May-2013 ✈ KALB - KORD

Flight Track Log - Related Links

Times and Time Zones

All times are in EDT time to prevent confusion due to time zone crossing. See the UAL407 flight status page for this flight to view local times or setup timezone preferences in your user account.

Time Position Orientation Groundspeed Altitude Reporting Facility
EDT Latitude Longitude Course Direction KTS MPH feet Rate Location/Type
06:25PM 42.7256 -73.8053 324° Northwest 163 188 1,400  Level Boston Center
06:26PM 42.6939 -73.8439 222° Southwest 208 239 3,100 2,340 Climbing Boston Center
06:28PM 42.8033 -74.1683 284° West  Level FlightAware Approximate
06:28PM 42.7367 -73.9328 303° West 257 296 6,700  Level Boston Center
06:29PM 42.8261 -74.2932 284° West  Level FlightAware Approximate
06:29PM 42.8047 -73.9825 332° Northwest 257 296 10,400  Level Boston Center
06:30PM 42.8476 -74.4186 283° West  Level FlightAware Approximate
06:30PM 42.8728 -74.0267 335° Northwest 262 302 13,900  Level Boston Center
06:31PM 42.8733 -74.5399 324° Northwest  Level FlightAware Approximate
06:31PM 42.9514 -74.0825 333° Northwest 292 336 15,800  Level Boston Center
06:32PM 42.9936 -74.1831 300° West 307 353 18,200 1,980 Climbing Boston Center
06:34PM 43.0206 -74.4394 278° West 329 379 21,800 1,860 Climbing Boston Center
06:35PM 43.0286 -74.5703 275° West 347 399 24,300 1,980 Climbing Boston Center
06:36PM 43.0422 -74.7356 276° West 364 419 26,200 1,560 Climbing Boston Center
06:37PM 43.0558 -74.8811 277° West 378 435 27,500 1,620 Climbing Boston Center
06:38PM 43.0706 -75.0636 276° West 397 457 29,800 2,040 Climbing Boston Center
06:39PM 43.0817 -75.2033 276° West 392 451 32,000 2,040 Climbing Boston Center
06:40PM 43.0931 -75.3375 277° West 373 429 33,900 1,740 Climbing Boston Center
06:41PM 43.1042 -75.4661 277° West 357 411 35,500 1,020 Climbing Boston Center
06:42PM 43.1153 -75.5947 277° West 350 403 36,000 360 Climbing Boston Center
06:43PM 43.1242 -75.7289 275° West 350 403 36,300 660 Climbing Boston Center
06:45PM 43.1333 -75.9167 274° West 360 414 37,800 780 Climbing Toronto Center
06:45PM 43.1417 -75.9761 281° West 357 411 37,900 60 Climbing Cleveland Center
06:46PM 43.1533 -76.1119 277° West 362 417 37,900  Level Cleveland Center
06:47PM 43.1606 -76.2481 274° West 362 417 37,900  Level Cleveland Center
06:48PM 43.1614 -76.3817 271° West 362 417 37,900  Level Cleveland Center
06:49PM 43.1619 -76.5183 270° West 362 417 37,900  Level Cleveland Center
06:50PM 43.1603 -76.6494 269° West 362 417 37,900  Level Cleveland Center
06:51PM 43.1592 -76.7978 269° West 362 417 38,000  Climbing Cleveland Center
06:52PM 43.1592 -76.9314 270° West 362 417 38,000  Level Cleveland Center
06:53PM 43.1572 -77.0711 269° West 368 423 38,000  Level Cleveland Center
06:54PM 43.1569 -77.2047 270° West 368 423 38,000  Level Cleveland Center
06:55PM 43.1567 -77.3386 270° West 368 423 38,000  Level Cleveland Center
06:56PM 43.1542 -77.4783 269° West 368 423 38,000  Level Cleveland Center
06:57PM 43.1539 -77.6178 270° West 368 423 38,000  Level Cleveland Center
06:58PM 43.1531 -77.7544 270° West 368 423 38,000  Level Cleveland Center
06:59PM 43.1497 -77.8797 268° West 368 423 38,000  Level Cleveland Center
07:00PM 43.1486 -78.0164 269° West 368 423 38,000  Level Cleveland Center
07:01PM 43.1475 -78.1561 269° West 368 423 38,000  Level Cleveland Center
07:02PM 43.1442 -78.2956 268° West 368 423 38,000  Level Cleveland Center
07:03PM 43.1406 -78.4350 268° West 368 423 38,000 -60 Level Cleveland Center
07:04PM 43.1367 -78.5719 268° West 368 423 37,900 -60 Descending Cleveland Center
07:05PM 43.1350 -78.7083 269° West 363 418 37,900  Level Cleveland Center
07:06PM 43.1286 -78.8453 266° West 363 418 38,000 60 Climbing Cleveland Center
07:07PM 43.1167 -78.9333 260° West 360 414 38,000  Level Toronto Center
07:08PM 43.1167 -79.0667 270° West 360 414 38,000  Level Toronto Center
07:09PM 43.1167 -79.2000 270° West 360 414 38,000  Level Toronto Center
07:10PM 43.1000 -79.3333 260° West 360 414 38,000  Level Toronto Center
07:11PM 43.1000 -79.4667 270° West 360 414 38,000  Level Toronto Center
07:12PM 43.1000 -79.6167 270° West 360 414 38,000  Level Toronto Center
07:13PM 43.0833 -79.7500 260° West 360 414 38,000  Level Toronto Center
07:14PM 43.0833 -79.8833 270° West 360 414 38,000  Level Toronto Center
07:15PM 43.0833 -80.0167 270° West 360 414 38,000  Level Toronto Center
07:16PM 43.0667 -80.1500 260° West 360 414 38,000  Level Toronto Center
07:17PM 43.0667 -80.3000 270° West 360 414 38,000  Level Toronto Center
07:18PM 43.0667 -80.4500 270° West 360 414 38,000  Level Toronto Center
07:19PM 43.0500 -80.5833 260° West 370 426 38,000  Level Toronto Center
07:20PM 43.0500 -80.7333 270° West 360 414 38,000  Level Toronto Center
07:21PM 43.0333 -80.8667 260° West 360 414 38,000  Level Toronto Center
07:22PM 43.0333 -81.0000 270° West 370 426 38,000  Level Toronto Center
07:23PM 43.0167 -81.1333 260° West 370 426 38,000  Level Toronto Center
07:24PM 43.0167 -81.2667 270° West 370 426 38,000  Level Toronto Center
07:25PM 43.0167 -81.4167 270° West 370 426 38,000  Level Toronto Center
07:26PM 43.0167 -81.5667 270° West 370 426 38,000  Level Toronto Center
07:27PM 43.0167 -81.7000 270° West 370 426 38,000  Level Toronto Center
07:28PM 43.0167 -81.8500 270° West 370 426 38,000  Level Toronto Center
07:29PM 43.0000 -81.9833 260° West 370 426 38,000  Level Toronto Center
07:30PM 43.0000 -82.1167 270° West 380 437 38,000  Level Toronto Center
07:31PM 43.0000 -82.2833 270° West 380 437 38,000  Level Toronto Center
07:32PM 43.0000 -82.4167 270° West 380 437 38,000 -180 Level Toronto Center
07:33PM 43.0000 -82.5667 270° West 390 449 37,700 -660 Descending Toronto Center
07:34PM 42.9833 -82.7167 261° West 390 449 36,700 -1,140 Descending Toronto Center
07:34PM 43.0000 -82.7719 292° West 388 447 36,200 -1,800 Descending Cleveland Center
07:35PM 42.9950 -82.9164 267° West 388 447 34,300 -1,620 Descending Cleveland Center
07:36PM 42.9900 -83.0667 267° West 383 441 33,000 -1,200 Descending Cleveland Center
07:37PM 42.9844 -83.2169 267° West 388 447 32,000 -540 Descending Cleveland Center
07:38PM 42.9789 -83.3728 267° West 399 459 32,000  Level Cleveland Center
07:39PM 42.9728 -83.5258 267° West 405 466 32,000  Level Cleveland Center
07:40PM 42.9689 -83.6789 268° West 405 466 32,000  Level Cleveland Center
07:41PM 42.9567 -83.8172 263° West 405 466 32,000 -120 Level Cleveland Center
07:42PM 42.9419 -83.9697 263° West 405 466 31,800 -420 Descending Cleveland Center
07:43PM 42.9289 -84.1222 263° West 405 466 31,200 -780 Descending Cleveland Center
07:44PM 42.9139 -84.2744 262° West 405 466 30,300 -1,200 Descending Cleveland Center
07:45PM 42.8956 -84.4492 262° West 411 473 28,800 -1,200 Descending Cleveland Center
07:46PM 42.8853 -84.5733 264° West 426 490 28,100 -420 Descending Chicago Center
07:47PM 42.8694 -84.7300 262° West 420 483 28,000 -60 Descending Chicago Center
07:48PM 42.8531 -84.8872 262° West 420 483 28,000  Level Chicago Center
07:49PM 42.8328 -85.0750 262° West 419 482 28,000  Level Chicago Center
07:50PM 42.8153 -85.2336 261° West 421 484 28,000 -60 Level Chicago Center
07:51PM 42.7983 -85.3928 262° West 424 488 27,900 -540 Descending Chicago Center
07:52PM 42.7781 -85.5475 260° West 418 481 26,900 -1,140 Descending Chicago Center
07:53PM 42.7497 -85.7011 256° West 415 478 25,600 -1,320 Descending Chicago Center
07:54PM 42.7233 -85.8508 257° West 408 470 24,200 -1,500 Descending Chicago Center
07:55PM 42.6967 -85.9961 256° West 397 457 22,600 -1,920 Descending Chicago Center
07:56PM 42.6664 -86.1650 256° West 383 441 20,300 -1,500 Descending Chicago Center
07:57PM 42.6403 -86.3042 256° West 380 437 19,600 -900 Descending Chicago Center
07:58PM 42.6139 -86.4394 255° West 373 429 18,500 -1,140 Descending Chicago Center
07:59PM 42.5878 -86.5744 255° West 371 427 17,200 -1,320 Descending Chicago Center
08:00PM 42.5642 -86.7119 257° West 372 428 15,800 -1,500 Descending Chicago Center
08:01PM 42.5228 -86.8664 250° West 365 420 14,100 -1,500 Descending Chicago Center
08:02PM 42.4883 -86.9953 250° West 366 421 12,700 -1,320 Descending Chicago Center
08:03PM 42.4522 -87.1200 249° West 360 414 11,400 -1,260 Descending Chicago Center
08:04PM 42.4169 -87.2478 250° West 362 417 10,100 -720 Descending Chicago Center
08:05PM 42.3836 -87.3714 250° West 354 407 10,000 -60 Descending Chicago Center
08:07PM 42.3478 -87.5028 250° West 352 405 10,000  Level Chicago Center
08:08PM 42.2803 -87.5975 226° Southwest 361 415 10,000  Level Chicago Center
08:09PM 42.1853 -87.6969 218° Southwest 361 415 10,000 -420 Level Chicago Center
08:10PM 42.1214 -87.7736 222° Southwest 314 361 9,200 -1,140 Descending Chicago Center
08:11PM 42.0833 -87.9000 248° West 284 327 7,500 -1,020 Descending Chicago TRACON
08:12PM 42.0500 -87.9833 242° Southwest 246 283 7,000 -480 Descending Chicago TRACON
08:13PM 42.0667 -88.0667 285° West 196 226 6,600 -780 Descending Chicago TRACON
08:14PM 42.0600 -88.1294 262° West 203 234 5,600 -840 Descending Chicago Center
08:15PM 42.0617 -88.2047 272° West 203 234 5,000 -300 Descending Chicago Center
08:16PM 42.0500 -88.2736 257° West 211 243 5,000  Level Chicago Center
08:17PM 41.9925 -88.2739 180° South 209 241 5,000 -180 Level Chicago Center
08:18PM 41.9683 -88.2100 117° Southeast 198 228 4,700 -660 Descending Chicago Center
08:19PM 41.9675 -88.1417 91° East 185 213 3,700 -1,020 Descending Chicago Center